sensor_id;sensor_type;location;lat;lon;timestamp;temperature;humidity
62573;DHT22;48626;51.678;5.806;2022-12-10T00:01:18;-0.70;99.90
62573;DHT22;48626;51.678;5.806;2022-12-10T00:03:45;-0.70;99.90
62573;DHT22;48626;51.678;5.806;2022-12-10T00:06:13;-0.80;99.90
62573;DHT22;48626;51.678;5.806;2022-12-10T00:08:39;-0.80;99.90
62573;DHT22;48626;51.678;5.806;2022-12-10T00:11:07;-0.80;99.90
62573;DHT22;48626;51.678;5.806;2022-12-10T00:13:34;-0.80;99.90
62573;DHT22;48626;51.678;5.806;2022-12-10T00:16:01;-0.70;99.90
62573;DHT22;48626;51.678;5.806;2022-12-10T00:18:27;-0.80;99.90
62573;DHT22;48626;51.678;5.806;2022-12-10T00:20:53;-0.80;99.90
62573;DHT22;48626;51.678;5.806;2022-12-10T00:23:18;-0.80;99.90
62573;DHT22;48626;51.678;5.806;2022-12-10T00:25:44;-0.80;99.90
62573;DHT22;48626;51.678;5.806;2022-12-10T00:28:09;-0.80;99.90
62573;DHT22;48626;51.678;5.806;2022-12-10T00:30:35;-0.90;99.90
62573;DHT22;48626;51.678;5.806;2022-12-10T00:33:01;-0.90;99.90
62573;DHT22;48626;51.678;5.806;2022-12-10T00:35:27;-0.90;99.90
62573;DHT22;48626;51.678;5.806;2022-12-10T00:37:52;-0.90;99.90
62573;DHT22;48626;51.678;5.806;2022-12-10T00:40:18;-0.90;99.90
62573;DHT22;48626;51.678;5.806;2022-12-10T00:42:44;-0.90;99.90
62573;DHT22;48626;51.678;5.806;2022-12-10T00:45:09;-0.90;99.90
62573;DHT22;48626;51.678;5.806;2022-12-10T00:47:35;-0.90;99.90
62573;DHT22;48626;51.678;5.806;2022-12-10T00:50:01;-0.90;99.90
62573;DHT22;48626;51.678;5.806;2022-12-10T00:52:27;-0.90;99.90
62573;DHT22;48626;51.678;5.806;2022-12-10T00:54:52;-0.90;99.90
62573;DHT22;48626;51.678;5.806;2022-12-10T00:57:18;-0.90;99.90
62573;DHT22;48626;51.678;5.806;2022-12-10T00:59:43;-0.90;99.90
62573;DHT22;48626;51.678;5.806;2022-12-10T01:02:09;-0.90;99.90
62573;DHT22;48626;51.678;5.806;2022-12-10T01:04:35;-0.90;99.90
62573;DHT22;48626;51.678;5.806;2022-12-10T01:07:00;-0.90;99.90
62573;DHT22;48626;51.678;5.806;2022-12-10T01:09:28;-0.90;99.90
62573;DHT22;48626;51.678;5.806;2022-12-10T01:11:56;-1.00;99.90
62573;DHT22;48626;51.678;5.806;2022-12-10T01:14:25;-1.00;99.90
62573;DHT22;48626;51.678;5.806;2022-12-10T01:16:56;-1.00;99.90
62573;DHT22;48626;51.678;5.806;2022-12-10T01:19:22;-1.00;99.90
62573;DHT22;48626;51.678;5.806;2022-12-10T01:21:51;-1.00;99.90
62573;DHT22;48626;51.678;5.806;2022-12-10T01:24:18;-1.10;99.90
62573;DHT22;48626;51.678;5.806;2022-12-10T01:26:44;-1.10;99.90
62573;DHT22;48626;51.678;5.806;2022-12-10T01:29:11;-1.10;99.90
62573;DHT22;48626;51.678;5.806;2022-12-10T01:31:38;-1.10;99.90
62573;DHT22;48626;51.678;5.806;2022-12-10T01:34:05;-1.20;99.90
62573;DHT22;48626;51.678;5.806;2022-12-10T01:36:52;-1.20;99.90
62573;DHT22;48626;51.678;5.806;2022-12-10T01:39:19;-1.20;99.90
62573;DHT22;48626;51.678;5.806;2022-12-10T01:41:48;-1.20;99.90
62573;DHT22;48626;51.678;5.806;2022-12-10T01:46:42;-1.20;99.90
62573;DHT22;48626;51.678;5.806;2022-12-10T01:49:12;-1.20;99.90
62573;DHT22;48626;51.678;5.806;2022-12-10T01:51:41;-1.20;99.90
62573;DHT22;48626;51.678;5.806;2022-12-10T01:54:11;-1.20;99.90
62573;DHT22;48626;51.678;5.806;2022-12-10T01:56:38;-1.30;99.90
62573;DHT22;48626;51.678;5.806;2022-12-10T01:59:06;-1.30;99.90
62573;DHT22;48626;51.678;5.806;2022-12-10T02:01:50;-1.30;99.90
62573;DHT22;48626;51.678;5.806;2022-12-10T02:10:34;-1.40;99.90
62573;DHT22;48626;51.678;5.806;2022-12-10T02:13:18;-1.40;99.90
62573;DHT22;48626;51.678;5.806;2022-12-10T02:15:51;-1.40;99.90
62573;DHT22;48626;51.678;5.806;2022-12-10T02:21:17;-1.40;99.90
62573;DHT22;48626;51.678;5.806;2022-12-10T02:23:47;-1.40;99.90
62573;DHT22;48626;51.678;5.806;2022-12-10T02:26:16;-1.40;99.90
62573;DHT22;48626;51.678;5.806;2022-12-10T02:29:05;-1.40;99.90
62573;DHT22;48626;51.678;5.806;2022-12-10T02:31:32;-1.30;99.90
62573;DHT22;48626;51.678;5.806;2022-12-10T02:34:00;-1.30;99.90
62573;DHT22;48626;51.678;5.806;2022-12-10T02:36:30;-1.30;99.90
62573;DHT22;48626;51.678;5.806;2022-12-10T02:38:58;-1.30;99.90
62573;DHT22;48626;51.678;5.806;2022-12-10T02:41:30;-1.30;99.90
62573;DHT22;48626;51.678;5.806;2022-12-10T02:43:59;-1.30;99.90
62573;DHT22;48626;51.678;5.806;2022-12-10T02:46:26;-1.30;99.90
62573;DHT22;48626;51.678;5.806;2022-12-10T02:48:54;-1.30;99.90
62573;DHT22;48626;51.678;5.806;2022-12-10T02:51:21;-1.30;99.90
62573;DHT22;48626;51.678;5.806;2022-12-10T02:53:46;-1.20;99.90
62573;DHT22;48626;51.678;5.806;2022-12-10T02:56:42;-1.20;99.90
62573;DHT22;48626;51.678;5.806;2022-12-10T02:59:31;-1.20;99.90
62573;DHT22;48626;51.678;5.806;2022-12-10T03:02:18;-1.20;99.90
62573;DHT22;48626;51.678;5.806;2022-12-10T03:05:04;-1.10;99.90
62573;DHT22;48626;51.678;5.806;2022-12-10T03:07:44;-1.10;99.90
62573;DHT22;48626;51.678;5.806;2022-12-10T03:10:23;-1.00;99.90
62573;DHT22;48626;51.678;5.806;2022-12-10T03:12:55;-0.90;99.90
62573;DHT22;48626;51.678;5.806;2022-12-10T03:15:24;-0.90;99.90
62573;DHT22;48626;51.678;5.806;2022-12-10T03:17:51;-0.90;99.90
62573;DHT22;48626;51.678;5.806;2022-12-10T03:20:18;-0.80;99.90
62573;DHT22;48626;51.678;5.806;2022-12-10T03:22:46;-0.80;99.90
62573;DHT22;48626;51.678;5.806;2022-12-10T03:25:19;-0.80;99.90
62573;DHT22;48626;51.678;5.806;2022-12-10T03:27:48;-0.80;99.90
62573;DHT22;48626;51.678;5.806;2022-12-10T03:30:16;-0.80;99.90
62573;DHT22;48626;51.678;5.806;2022-12-10T03:32:43;-0.80;99.90
62573;DHT22;48626;51.678;5.806;2022-12-10T03:35:10;-0.90;99.90
62573;DHT22;48626;51.678;5.806;2022-12-10T03:37:36;-1.00;99.90
62573;DHT22;48626;51.678;5.806;2022-12-10T03:40:04;-1.00;99.90
62573;DHT22;48626;51.678;5.806;2022-12-10T03:42:30;-1.10;99.90
62573;DHT22;48626;51.678;5.806;2022-12-10T03:44:56;-1.10;99.90
62573;DHT22;48626;51.678;5.806;2022-12-10T03:47:23;-1.20;99.90
62573;DHT22;48626;51.678;5.806;2022-12-10T03:49:49;-1.20;99.90
62573;DHT22;48626;51.678;5.806;2022-12-10T03:52:14;-1.30;99.90
62573;DHT22;48626;51.678;5.806;2022-12-10T03:54:41;-1.30;99.90
62573;DHT22;48626;51.678;5.806;2022-12-10T03:57:07;-1.40;99.90
62573;DHT22;48626;51.678;5.806;2022-12-10T03:59:32;-1.40;99.90
62573;DHT22;48626;51.678;5.806;2022-12-10T04:01:58;-1.40;99.90
62573;DHT22;48626;51.678;5.806;2022-12-10T04:04:24;-1.40;99.90
62573;DHT22;48626;51.678;5.806;2022-12-10T04:06:50;-1.50;99.90
62573;DHT22;48626;51.678;5.806;2022-12-10T04:09:16;-1.50;99.90
62573;DHT22;48626;51.678;5.806;2022-12-10T04:11:42;-1.50;99.90
62573;DHT22;48626;51.678;5.806;2022-12-10T04:14:09;-1.50;99.90
62573;DHT22;48626;51.678;5.806;2022-12-10T04:16:54;-1.40;99.90
62573;DHT22;48626;51.678;5.806;2022-12-10T04:19:20;-1.40;99.90
62573;DHT22;48626;51.678;5.806;2022-12-10T04:21:46;-1.30;99.90
62573;DHT22;48626;51.678;5.806;2022-12-10T04:24:32;-1.20;99.90
62573;DHT22;48626;51.678;5.806;2022-12-10T04:27:21;-1.20;99.90
62573;DHT22;48626;51.678;5.806;2022-12-10T04:29:48;-1.10;99.90
62573;DHT22;48626;51.678;5.806;2022-12-10T04:32:14;-1.00;99.90
62573;DHT22;48626;51.678;5.806;2022-12-10T04:34:40;-1.00;99.90
62573;DHT22;48626;51.678;5.806;2022-12-10T04:37:06;-0.90;99.90
62573;DHT22;48626;51.678;5.806;2022-12-10T04:39:31;-0.90;99.90
62573;DHT22;48626;51.678;5.806;2022-12-10T04:41:59;-0.80;99.90
62573;DHT22;48626;51.678;5.806;2022-12-10T04:44:24;-0.80;99.90
62573;DHT22;48626;51.678;5.806;2022-12-10T04:46:50;-0.70;99.90
62573;DHT22;48626;51.678;5.806;2022-12-10T04:49:16;-0.60;99.90
62573;DHT22;48626;51.678;5.806;2022-12-10T04:51:42;-0.60;99.90
62573;DHT22;48626;51.678;5.806;2022-12-10T04:54:08;-0.60;99.90
62573;DHT22;48626;51.678;5.806;2022-12-10T04:56:34;-0.50;99.90
62573;DHT22;48626;51.678;5.806;2022-12-10T04:59:00;-0.60;99.90
62573;DHT22;48626;51.678;5.806;2022-12-10T05:01:26;-0.50;99.90
62573;DHT22;48626;51.678;5.806;2022-12-10T05:03:52;-0.50;99.90
62573;DHT22;48626;51.678;5.806;2022-12-10T05:06:19;-0.50;99.90
62573;DHT22;48626;51.678;5.806;2022-12-10T05:08:46;-0.50;99.90
62573;DHT22;48626;51.678;5.806;2022-12-10T05:11:24;-0.40;99.90
62573;DHT22;48626;51.678;5.806;2022-12-10T05:13:50;-0.40;99.90
62573;DHT22;48626;51.678;5.806;2022-12-10T05:16:18;-0.40;99.90
62573;DHT22;48626;51.678;5.806;2022-12-10T05:18:45;-0.30;99.90
62573;DHT22;48626;51.678;5.806;2022-12-10T05:21:13;-0.30;99.90
62573;DHT22;48626;51.678;5.806;2022-12-10T05:23:41;-0.30;99.90
62573;DHT22;48626;51.678;5.806;2022-12-10T05:26:21;-0.30;99.90
62573;DHT22;48626;51.678;5.806;2022-12-10T05:31:23;-0.20;99.90
62573;DHT22;48626;51.678;5.806;2022-12-10T05:33:50;-0.20;99.90
62573;DHT22;48626;51.678;5.806;2022-12-10T05:36:18;-0.20;99.90
62573;DHT22;48626;51.678;5.806;2022-12-10T05:38:45;-0.10;99.90
62573;DHT22;48626;51.678;5.806;2022-12-10T05:41:16;-0.20;99.90
62573;DHT22;48626;51.678;5.806;2022-12-10T05:43:43;-0.10;99.90
62573;DHT22;48626;51.678;5.806;2022-12-10T05:46:17;-0.10;99.90
62573;DHT22;48626;51.678;5.806;2022-12-10T05:48:43;-0.10;99.90
62573;DHT22;48626;51.678;5.806;2022-12-10T05:51:15;-0.10;99.90
62573;DHT22;48626;51.678;5.806;2022-12-10T05:53:42;-0.10;99.90
62573;DHT22;48626;51.678;5.806;2022-12-10T05:56:10;-0.10;99.90
62573;DHT22;48626;51.678;5.806;2022-12-10T05:58:37;0.00;99.90
62573;DHT22;48626;51.678;5.806;2022-12-10T06:01:11;0.00;99.90
62573;DHT22;48626;51.678;5.806;2022-12-10T06:03:37;0.00;99.90
62573;DHT22;48626;51.678;5.806;2022-12-10T06:06:04;0.00;99.90
62573;DHT22;48626;51.678;5.806;2022-12-10T06:08:30;0.10;99.90
62573;DHT22;48626;51.678;5.806;2022-12-10T06:10:56;0.10;99.90
62573;DHT22;48626;51.678;5.806;2022-12-10T06:13:23;0.10;99.90
62573;DHT22;48626;51.678;5.806;2022-12-10T06:15:49;0.10;99.90
62573;DHT22;48626;51.678;5.806;2022-12-10T06:18:14;0.10;99.90
62573;DHT22;48626;51.678;5.806;2022-12-10T06:20:40;0.10;99.90
62573;DHT22;48626;51.678;5.806;2022-12-10T06:23:06;0.10;99.90
62573;DHT22;48626;51.678;5.806;2022-12-10T06:25:33;0.10;99.90
62573;DHT22;48626;51.678;5.806;2022-12-10T06:27:58;0.10;99.90
62573;DHT22;48626;51.678;5.806;2022-12-10T06:30:24;0.10;99.90
62573;DHT22;48626;51.678;5.806;2022-12-10T06:32:50;0.10;99.90
62573;DHT22;48626;51.678;5.806;2022-12-10T06:35:16;0.10;99.90
62573;DHT22;48626;51.678;5.806;2022-12-10T06:37:41;0.10;99.90
62573;DHT22;48626;51.678;5.806;2022-12-10T06:40:07;0.10;99.90
62573;DHT22;48626;51.678;5.806;2022-12-10T06:42:33;0.10;99.90
62573;DHT22;48626;51.678;5.806;2022-12-10T06:44:58;0.10;99.90
62573;DHT22;48626;51.678;5.806;2022-12-10T06:47:24;0.20;99.90
62573;DHT22;48626;51.678;5.806;2022-12-10T06:49:49;0.20;99.90
62573;DHT22;48626;51.678;5.806;2022-12-10T06:52:15;0.20;99.90
62573;DHT22;48626;51.678;5.806;2022-12-10T06:54:41;0.20;99.90
62573;DHT22;48626;51.678;5.806;2022-12-10T06:57:07;0.30;99.90
62573;DHT22;48626;51.678;5.806;2022-12-10T06:59:32;0.20;99.90
62573;DHT22;48626;51.678;5.806;2022-12-10T07:01:58;0.30;99.90
62573;DHT22;48626;51.678;5.806;2022-12-10T07:04:24;0.30;99.90
62573;DHT22;48626;51.678;5.806;2022-12-10T07:06:49;0.30;99.90
62573;DHT22;48626;51.678;5.806;2022-12-10T07:09:15;0.30;99.90
62573;DHT22;48626;51.678;5.806;2022-12-10T07:11:42;0.40;99.90
62573;DHT22;48626;51.678;5.806;2022-12-10T07:14:10;0.30;99.90
62573;DHT22;48626;51.678;5.806;2022-12-10T07:16:38;0.30;99.90
62573;DHT22;48626;51.678;5.806;2022-12-10T07:19:04;0.30;99.90
62573;DHT22;48626;51.678;5.806;2022-12-10T07:21:34;0.30;99.90
62573;DHT22;48626;51.678;5.806;2022-12-10T07:24:12;0.20;99.90
62573;DHT22;48626;51.678;5.806;2022-12-10T07:26:40;0.20;99.90
62573;DHT22;48626;51.678;5.806;2022-12-10T07:29:08;0.20;99.90
62573;DHT22;48626;51.678;5.806;2022-12-10T07:31:35;0.30;99.90
62573;DHT22;48626;51.678;5.806;2022-12-10T07:34:01;0.30;99.90
62573;DHT22;48626;51.678;5.806;2022-12-10T07:36:28;0.30;99.90
62573;DHT22;48626;51.678;5.806;2022-12-10T07:38:54;0.30;99.90
62573;DHT22;48626;51.678;5.806;2022-12-10T07:41:21;0.30;99.90
62573;DHT22;48626;51.678;5.806;2022-12-10T07:43:48;0.30;99.90
62573;DHT22;48626;51.678;5.806;2022-12-10T07:46:17;0.30;99.90
62573;DHT22;48626;51.678;5.806;2022-12-10T07:48:44;0.30;99.90
62573;DHT22;48626;51.678;5.806;2022-12-10T07:51:11;0.40;99.90
62573;DHT22;48626;51.678;5.806;2022-12-10T07:53:37;0.40;99.90
62573;DHT22;48626;51.678;5.806;2022-12-10T07:56:03;0.40;99.90
62573;DHT22;48626;51.678;5.806;2022-12-10T07:58:29;0.50;99.90
62573;DHT22;48626;51.678;5.806;2022-12-10T08:00:54;0.50;99.90
62573;DHT22;48626;51.678;5.806;2022-12-10T08:03:20;0.50;99.90
62573;DHT22;48626;51.678;5.806;2022-12-10T08:05:46;0.50;99.90
62573;DHT22;48626;51.678;5.806;2022-12-10T08:08:11;0.50;99.90
62573;DHT22;48626;51.678;5.806;2022-12-10T08:10:38;0.40;99.90
62573;DHT22;48626;51.678;5.806;2022-12-10T08:13:05;0.50;99.90
62573;DHT22;48626;51.678;5.806;2022-12-10T08:15:31;0.50;99.90
62573;DHT22;48626;51.678;5.806;2022-12-10T08:17:57;0.50;99.90
62573;DHT22;48626;51.678;5.806;2022-12-10T08:20:24;0.50;99.90
62573;DHT22;48626;51.678;5.806;2022-12-10T08:22:50;0.50;99.90
62573;DHT22;48626;51.678;5.806;2022-12-10T08:25:16;0.60;99.90
62573;DHT22;48626;51.678;5.806;2022-12-10T08:27:42;0.60;99.90
62573;DHT22;48626;51.678;5.806;2022-12-10T08:30:08;0.60;99.90
62573;DHT22;48626;51.678;5.806;2022-12-10T08:32:34;0.60;99.90
62573;DHT22;48626;51.678;5.806;2022-12-10T08:34:59;0.60;99.90
62573;DHT22;48626;51.678;5.806;2022-12-10T08:37:25;0.70;99.90
62573;DHT22;48626;51.678;5.806;2022-12-10T08:39:50;0.70;99.90
62573;DHT22;48626;51.678;5.806;2022-12-10T08:42:16;0.70;99.90
62573;DHT22;48626;51.678;5.806;2022-12-10T08:44:41;0.70;99.90
62573;DHT22;48626;51.678;5.806;2022-12-10T08:47:07;0.80;99.90
62573;DHT22;48626;51.678;5.806;2022-12-10T08:49:33;0.80;99.90
62573;DHT22;48626;51.678;5.806;2022-12-10T08:51:59;0.80;99.90
62573;DHT22;48626;51.678;5.806;2022-12-10T08:54:24;0.90;99.90
62573;DHT22;48626;51.678;5.806;2022-12-10T08:56:50;0.90;99.90
62573;DHT22;48626;51.678;5.806;2022-12-10T08:59:16;0.90;99.90
62573;DHT22;48626;51.678;5.806;2022-12-10T09:01:42;0.90;99.90
62573;DHT22;48626;51.678;5.806;2022-12-10T09:04:07;0.90;99.90
62573;DHT22;48626;51.678;5.806;2022-12-10T09:06:33;0.90;99.90
62573;DHT22;48626;51.678;5.806;2022-12-10T09:08:59;0.90;99.90
62573;DHT22;48626;51.678;5.806;2022-12-10T09:11:33;0.90;99.90
62573;DHT22;48626;51.678;5.806;2022-12-10T09:13:59;0.90;99.90
62573;DHT22;48626;51.678;5.806;2022-12-10T09:16:33;0.90;99.90
62573;DHT22;48626;51.678;5.806;2022-12-10T09:18:59;0.80;99.90
62573;DHT22;48626;51.678;5.806;2022-12-10T09:21:26;0.80;99.90
62573;DHT22;48626;51.678;5.806;2022-12-10T09:23:52;0.80;99.90
62573;DHT22;48626;51.678;5.806;2022-12-10T09:26:19;0.80;99.90
62573;DHT22;48626;51.678;5.806;2022-12-10T09:28:46;0.80;99.90
62573;DHT22;48626;51.678;5.806;2022-12-10T09:31:12;0.90;99.90
62573;DHT22;48626;51.678;5.806;2022-12-10T09:33:39;0.90;99.90
62573;DHT22;48626;51.678;5.806;2022-12-10T09:36:06;0.80;99.90
62573;DHT22;48626;51.678;5.806;2022-12-10T09:38:41;0.80;99.90
62573;DHT22;48626;51.678;5.806;2022-12-10T09:46:55;1.00;99.90
62573;DHT22;48626;51.678;5.806;2022-12-10T09:49:33;1.00;99.90
62573;DHT22;48626;51.678;5.806;2022-12-10T09:52:05;1.00;99.90
62573;DHT22;48626;51.678;5.806;2022-12-10T09:54:38;1.00;99.90
62573;DHT22;48626;51.678;5.806;2022-12-10T09:57:06;1.00;99.90
62573;DHT22;48626;51.678;5.806;2022-12-10T09:59:37;1.00;99.90
62573;DHT22;48626;51.678;5.806;2022-12-10T10:02:27;1.00;99.90
62573;DHT22;48626;51.678;5.806;2022-12-10T10:05:18;1.10;99.90
62573;DHT22;48626;51.678;5.806;2022-12-10T10:07:48;1.10;99.90
62573;DHT22;48626;51.678;5.806;2022-12-10T10:10:29;1.10;99.90
62573;DHT22;48626;51.678;5.806;2022-12-10T10:15:36;1.10;99.90
62573;DHT22;48626;51.678;5.806;2022-12-10T10:18:21;1.10;99.90
62573;DHT22;48626;51.678;5.806;2022-12-10T10:20:49;1.10;99.90
62573;DHT22;48626;51.678;5.806;2022-12-10T10:23:15;1.20;99.90
62573;DHT22;48626;51.678;5.806;2022-12-10T10:25:42;1.20;99.90
62573;DHT22;48626;51.678;5.806;2022-12-10T10:28:12;1.20;99.90
62573;DHT22;48626;51.678;5.806;2022-12-10T10:30:41;1.20;99.90
62573;DHT22;48626;51.678;5.806;2022-12-10T10:33:09;1.20;99.90
62573;DHT22;48626;51.678;5.806;2022-12-10T10:35:43;1.20;99.90
62573;DHT22;48626;51.678;5.806;2022-12-10T10:38:21;1.20;99.90
62573;DHT22;48626;51.678;5.806;2022-12-10T10:40:59;1.20;99.90
62573;DHT22;48626;51.678;5.806;2022-12-10T10:43:40;1.30;99.90
62573;DHT22;48626;51.678;5.806;2022-12-10T10:46:20;1.20;99.90
62573;DHT22;48626;51.678;5.806;2022-12-10T10:48:47;1.20;99.90
62573;DHT22;48626;51.678;5.806;2022-12-10T10:56:14;1.20;99.90
62573;DHT22;48626;51.678;5.806;2022-12-10T11:01:51;1.30;99.90
62573;DHT22;48626;51.678;5.806;2022-12-10T11:04:28;1.30;99.90
62573;DHT22;48626;51.678;5.806;2022-12-10T11:06:56;1.40;99.90
62573;DHT22;48626;51.678;5.806;2022-12-10T11:09:29;1.30;99.90
62573;DHT22;48626;51.678;5.806;2022-12-10T11:12:04;1.40;99.90
62573;DHT22;48626;51.678;5.806;2022-12-10T11:14:44;1.40;99.90
62573;DHT22;48626;51.678;5.806;2022-12-10T11:17:17;1.40;99.90
62573;DHT22;48626;51.678;5.806;2022-12-10T11:19:59;1.50;99.90
62573;DHT22;48626;51.678;5.806;2022-12-10T11:22:33;1.50;99.90
62573;DHT22;48626;51.678;5.806;2022-12-10T11:24:59;1.60;99.90
62573;DHT22;48626;51.678;5.806;2022-12-10T11:27:37;1.50;99.90
62573;DHT22;48626;51.678;5.806;2022-12-10T11:30:05;1.50;99.90
62573;DHT22;48626;51.678;5.806;2022-12-10T11:35:12;1.60;99.90
62573;DHT22;48626;51.678;5.806;2022-12-10T11:42:48;1.80;99.90
62573;DHT22;48626;51.678;5.806;2022-12-10T11:45:20;1.70;99.90
62573;DHT22;48626;51.678;5.806;2022-12-10T11:50:31;1.70;99.90
62573;DHT22;48626;51.678;5.806;2022-12-10T11:53:27;1.70;99.90
62573;DHT22;48626;51.678;5.806;2022-12-10T11:58:57;1.70;99.90
62573;DHT22;48626;51.678;5.806;2022-12-10T12:04:33;1.70;99.90
62573;DHT22;48626;51.678;5.806;2022-12-10T12:18:23;1.80;99.90
62573;DHT22;48626;51.678;5.806;2022-12-10T12:20:54;1.80;99.90
62573;DHT22;48626;51.678;5.806;2022-12-10T12:26:28;1.80;99.90
62573;DHT22;48626;51.678;5.806;2022-12-10T12:29:29;1.80;99.90
62573;DHT22;48626;51.678;5.806;2022-12-10T12:34:59;1.70;99.90
62573;DHT22;48626;51.678;5.806;2022-12-10T12:37:38;1.80;99.90
62573;DHT22;48626;51.678;5.806;2022-12-10T12:40:29;1.90;99.90
62573;DHT22;48626;51.678;5.806;2022-12-10T12:43:01;1.90;99.90
62573;DHT22;48626;51.678;5.806;2022-12-10T12:45:48;1.90;99.90
62573;DHT22;48626;51.678;5.806;2022-12-10T12:48:32;1.90;99.90
62573;DHT22;48626;51.678;5.806;2022-12-10T12:51:13;1.90;99.90
62573;DHT22;48626;51.678;5.806;2022-12-10T12:53:40;1.90;99.90
62573;DHT22;48626;51.678;5.806;2022-12-10T13:04:36;1.80;99.90
62573;DHT22;48626;51.678;5.806;2022-12-10T13:09:48;1.90;99.90
62573;DHT22;48626;51.678;5.806;2022-12-10T13:14:54;1.80;99.90
62573;DHT22;48626;51.678;5.806;2022-12-10T13:17:33;1.80;99.90
62573;DHT22;48626;51.678;5.806;2022-12-10T13:20:25;1.80;99.90
62573;DHT22;48626;51.678;5.806;2022-12-10T13:23:01;1.90;99.90
62573;DHT22;48626;51.678;5.806;2022-12-10T13:25:39;1.90;99.90
62573;DHT22;48626;51.678;5.806;2022-12-10T13:31:46;2.00;99.90
62573;DHT22;48626;51.678;5.806;2022-12-10T13:34:23;2.00;99.90
62573;DHT22;48626;51.678;5.806;2022-12-10T13:39:35;2.10;99.90
62573;DHT22;48626;51.678;5.806;2022-12-10T13:45:23;2.10;99.90
62573;DHT22;48626;51.678;5.806;2022-12-10T13:56:04;2.10;99.90
62573;DHT22;48626;51.678;5.806;2022-12-10T14:06:21;2.00;99.90
62573;DHT22;48626;51.678;5.806;2022-12-10T14:11:27;2.00;99.90
62573;DHT22;48626;51.678;5.806;2022-12-10T14:13:56;1.90;99.90
62573;DHT22;48626;51.678;5.806;2022-12-10T14:16:28;1.90;99.90
62573;DHT22;48626;51.678;5.806;2022-12-10T14:18:58;1.90;99.90
62573;DHT22;48626;51.678;5.806;2022-12-10T14:21:25;1.90;99.90
62573;DHT22;48626;51.678;5.806;2022-12-10T14:23:52;1.90;99.90
62573;DHT22;48626;51.678;5.806;2022-12-10T14:26:29;1.90;99.90
62573;DHT22;48626;51.678;5.806;2022-12-10T14:29:19;1.90;99.90
62573;DHT22;48626;51.678;5.806;2022-12-10T14:31:48;1.90;99.90
62573;DHT22;48626;51.678;5.806;2022-12-10T14:34:26;1.90;99.90
62573;DHT22;48626;51.678;5.806;2022-12-10T14:36:55;1.90;99.90
62573;DHT22;48626;51.678;5.806;2022-12-10T14:39:30;1.90;99.90
62573;DHT22;48626;51.678;5.806;2022-12-10T14:42:00;1.90;99.90
62573;DHT22;48626;51.678;5.806;2022-12-10T14:44:27;1.90;99.90
62573;DHT22;48626;51.678;5.806;2022-12-10T14:47:11;1.90;99.90
62573;DHT22;48626;51.678;5.806;2022-12-10T14:49:41;1.90;99.90
62573;DHT22;48626;51.678;5.806;2022-12-10T14:52:19;1.90;99.90
62573;DHT22;48626;51.678;5.806;2022-12-10T14:54:46;1.90;99.90
62573;DHT22;48626;51.678;5.806;2022-12-10T14:57:34;1.90;99.90
62573;DHT22;48626;51.678;5.806;2022-12-10T15:00:06;1.80;99.90
62573;DHT22;48626;51.678;5.806;2022-12-10T15:02:41;1.70;99.90
62573;DHT22;48626;51.678;5.806;2022-12-10T15:05:25;1.80;99.90
62573;DHT22;48626;51.678;5.806;2022-12-10T15:07:56;1.80;99.90
62573;DHT22;48626;51.678;5.806;2022-12-10T15:10:37;1.70;99.90
62573;DHT22;48626;51.678;5.806;2022-12-10T15:13:05;1.80;99.90
62573;DHT22;48626;51.678;5.806;2022-12-10T15:15:37;1.80;99.90
62573;DHT22;48626;51.678;5.806;2022-12-10T15:28:33;1.70;99.90
62573;DHT22;48626;51.678;5.806;2022-12-10T15:34:10;1.70;99.90
62573;DHT22;48626;51.678;5.806;2022-12-10T15:37:03;1.70;99.90
62573;DHT22;48626;51.678;5.806;2022-12-10T15:39:36;1.70;99.90
62573;DHT22;48626;51.678;5.806;2022-12-10T15:42:06;1.70;99.90
62573;DHT22;48626;51.678;5.806;2022-12-10T15:44:40;1.70;99.90
62573;DHT22;48626;51.678;5.806;2022-12-10T15:47:25;1.70;99.90
62573;DHT22;48626;51.678;5.806;2022-12-10T15:49:53;1.80;99.90
62573;DHT22;48626;51.678;5.806;2022-12-10T15:52:20;1.70;99.90
62573;DHT22;48626;51.678;5.806;2022-12-10T15:54:48;1.70;99.90
62573;DHT22;48626;51.678;5.806;2022-12-10T15:57:35;1.70;99.90
62573;DHT22;48626;51.678;5.806;2022-12-10T16:00:08;1.70;99.90
62573;DHT22;48626;51.678;5.806;2022-12-10T16:05:11;1.70;99.90
62573;DHT22;48626;51.678;5.806;2022-12-10T16:07:38;1.70;99.90
62573;DHT22;48626;51.678;5.806;2022-12-10T16:10:04;1.70;99.90
62573;DHT22;48626;51.678;5.806;2022-12-10T16:12:30;1.70;99.90
62573;DHT22;48626;51.678;5.806;2022-12-10T16:14:57;1.70;99.90
62573;DHT22;48626;51.678;5.806;2022-12-10T16:17:26;1.70;99.90
62573;DHT22;48626;51.678;5.806;2022-12-10T16:22:36;1.70;99.90
62573;DHT22;48626;51.678;5.806;2022-12-10T16:25:01;1.70;99.90
62573;DHT22;48626;51.678;5.806;2022-12-10T16:27:27;1.80;99.90
62573;DHT22;48626;51.678;5.806;2022-12-10T16:29:53;1.70;99.90
62573;DHT22;48626;51.678;5.806;2022-12-10T16:32:18;1.70;99.90
62573;DHT22;48626;51.678;5.806;2022-12-10T16:34:44;1.70;99.90
62573;DHT22;48626;51.678;5.806;2022-12-10T16:37:11;1.70;99.90
62573;DHT22;48626;51.678;5.806;2022-12-10T16:39:37;1.80;99.90
62573;DHT22;48626;51.678;5.806;2022-12-10T16:42:03;1.80;99.90
62573;DHT22;48626;51.678;5.806;2022-12-10T16:44:28;1.80;99.90
62573;DHT22;48626;51.678;5.806;2022-12-10T16:46:54;1.80;99.90
62573;DHT22;48626;51.678;5.806;2022-12-10T16:49:19;1.80;99.90
62573;DHT22;48626;51.678;5.806;2022-12-10T16:51:45;1.80;99.90
62573;DHT22;48626;51.678;5.806;2022-12-10T16:54:11;1.80;99.90
62573;DHT22;48626;51.678;5.806;2022-12-10T16:56:37;1.90;99.90
62573;DHT22;48626;51.678;5.806;2022-12-10T16:59:03;1.80;99.90
62573;DHT22;48626;51.678;5.806;2022-12-10T17:01:29;1.80;99.90
62573;DHT22;48626;51.678;5.806;2022-12-10T17:03:57;1.80;99.90
62573;DHT22;48626;51.678;5.806;2022-12-10T17:06:23;1.80;99.90
62573;DHT22;48626;51.678;5.806;2022-12-10T17:08:49;1.90;99.90
62573;DHT22;48626;51.678;5.806;2022-12-10T17:11:16;1.90;99.90
62573;DHT22;48626;51.678;5.806;2022-12-10T17:14:02;1.90;99.90
62573;DHT22;48626;51.678;5.806;2022-12-10T17:16:27;1.90;99.90
62573;DHT22;48626;51.678;5.806;2022-12-10T17:18:53;1.90;99.90
62573;DHT22;48626;51.678;5.806;2022-12-10T17:21:19;1.90;99.90
62573;DHT22;48626;51.678;5.806;2022-12-10T17:23:44;1.90;99.90
62573;DHT22;48626;51.678;5.806;2022-12-10T17:26:31;1.90;99.90
62573;DHT22;48626;51.678;5.806;2022-12-10T17:29:33;1.90;99.90
62573;DHT22;48626;51.678;5.806;2022-12-10T17:31:57;1.90;99.90
62573;DHT22;48626;51.678;5.806;2022-12-10T17:34:23;1.90;99.90
62573;DHT22;48626;51.678;5.806;2022-12-10T17:36:50;1.90;99.90
62573;DHT22;48626;51.678;5.806;2022-12-10T17:39:18;1.90;99.90
62573;DHT22;48626;51.678;5.806;2022-12-10T17:41:44;1.90;99.90
62573;DHT22;48626;51.678;5.806;2022-12-10T17:44:10;1.80;99.90
62573;DHT22;48626;51.678;5.806;2022-12-10T17:46:36;1.80;99.90
62573;DHT22;48626;51.678;5.806;2022-12-10T17:49:03;1.80;99.90
62573;DHT22;48626;51.678;5.806;2022-12-10T17:51:29;1.80;99.90
62573;DHT22;48626;51.678;5.806;2022-12-10T17:53:55;1.80;99.90
62573;DHT22;48626;51.678;5.806;2022-12-10T17:56:24;1.90;99.90
62573;DHT22;48626;51.678;5.806;2022-12-10T17:58:51;1.90;99.90
62573;DHT22;48626;51.678;5.806;2022-12-10T18:01:18;1.90;99.90